Time;durP1;ratioP1;P1;durP2;ratioP2;P2;SDS_P1;SDS_P2;PMS_P1;PMS_P2;Temp;Humidity;BMP_temperature;BMP_pressure;BME280_temperature;BME280_humidity;BME280_pressure;Samples;Min_cycle;Max_cycle;Signal;HPM_P1;HPM_P2
2022/07/04 00:00:59;;;;;;;;;;;16.00;99.90;;;;;;8392143;28;19928;-75
2022/07/04 00:05:01;;;;;;;;;;;16.00;99.90;;;;;;8393123;28;19932;-76
2022/07/04 00:09:03;;;;;;;;;;;16.00;99.90;;;;;;8377895;28;19935;-75
2022/07/04 00:13:05;;;;;;;;;;;15.90;99.90;;;;;;8379789;28;19940;-75
2022/07/04 00:17:07;;;;;;;;;;;15.90;99.90;;;;;;8379319;28;19924;-75
2022/07/04 00:21:08;;;;;;;;;;;15.80;99.90;;;;;;8349073;28;20417;-75
2022/07/04 00:25:10;;;;;;;;;;;15.80;99.90;;;;;;8379915;28;20338;-76
2022/07/04 00:29:12;;;;;;;;;;;15.70;99.90;;;;;;8375248;28;19929;-75
2022/07/04 00:33:14;;;;;;;;;;;15.70;99.90;;;;;;8383579;28;19932;-76
2022/07/04 00:37:16;;;;;;;;;;;15.60;99.90;;;;;;8378604;28;19931;-75
2022/07/04 00:41:17;;;;;;;;;;;15.60;99.90;;;;;;8385656;28;19924;-75
2022/07/04 00:45:20;;;;;;;;;;;15.50;99.90;;;;;;8388746;28;19924;-75
2022/07/04 00:49:21;;;;;;;;;;;15.50;99.90;;;;;;8364482;28;19928;-75
2022/07/04 00:53:23;;;;;;;;;;;15.40;99.90;;;;;;8385989;28;20255;-75
2022/07/04 00:57:25;;;;;;;;;;;15.40;99.90;;;;;;8380574;28;19924;-76
2022/07/04 01:01:27;;;;;;;;;;;15.30;99.90;;;;;;8366004;28;19929;-75
2022/07/04 01:05:29;;;;;;;;;;;15.20;99.90;;;;;;8379424;28;19924;-75
2022/07/04 01:09:31;;;;;;;;;;;15.20;99.90;;;;;;8355653;28;19991;-75
2022/07/04 01:13:32;;;;;;;;;;;15.10;99.90;;;;;;8379356;28;20394;-75
2022/07/04 01:17:34;;;;;;;;;;;15.10;99.90;;;;;;8386609;28;19932;-75
2022/07/04 01:21:36;;;;;;;;;;;15.10;99.90;;;;;;8364438;28;19936;-75
2022/07/04 01:25:38;;;;;;;;;;;15.00;99.90;;;;;;8380773;28;20016;-76
2022/07/04 01:29:39;;;;;;;;;;;15.00;99.90;;;;;;8380202;28;19932;-76
2022/07/04 01:33:41;;;;;;;;;;;14.90;99.90;;;;;;8378054;28;19921;-76
2022/07/04 01:42:46;;;;;;;;;;;14.80;99.90;;;;;;8370961;28;19959;-75
2022/07/04 01:46:48;;;;;;;;;;;14.70;99.90;;;;;;8377647;28;19935;-76
2022/07/04 01:50:49;;;;;;;;;;;14.70;99.90;;;;;;8363605;28;19983;-75
2022/07/04 01:54:51;;;;;;;;;;;14.60;99.90;;;;;;8395509;28;19921;-75
2022/07/04 01:58:53;;;;;;;;;;;14.50;99.90;;;;;;8371375;28;19939;-75
2022/07/04 02:02:54;;;;;;;;;;;14.50;99.90;;;;;;8350617;28;19928;-75
2022/07/04 02:06:56;;;;;;;;;;;14.50;99.90;;;;;;8377298;28;20385;-75
2022/07/04 02:10:58;;;;;;;;;;;14.40;99.90;;;;;;8386430;28;19928;-75
2022/07/04 02:14:59;;;;;;;;;;;14.50;99.90;;;;;;8364381;28;19963;-75
2022/07/04 02:19:01;;;;;;;;;;;14.40;99.90;;;;;;8375945;28;19920;-75
2022/07/04 02:23:04;;;;;;;;;;;14.40;99.90;;;;;;8361518;28;19920;-75
2022/07/04 02:27:06;;;;;;;;;;;14.40;99.90;;;;;;8390209;28;19962;-75
2022/07/04 02:31:07;;;;;;;;;;;14.40;99.90;;;;;;8364902;28;19924;-75
2022/07/04 02:35:09;;;;;;;;;;;14.40;99.90;;;;;;8386855;28;19927;-76
2022/07/04 02:39:11;;;;;;;;;;;14.30;99.90;;;;;;8387234;28;19925;-75
2022/07/04 02:43:13;;;;;;;;;;;14.30;99.90;;;;;;8385009;28;19927;-75
2022/07/04 02:47:15;;;;;;;;;;;14.30;99.90;;;;;;8388872;28;19927;-75
2022/07/04 02:51:16;;;;;;;;;;;14.30;99.90;;;;;;8388027;28;19928;-75
2022/07/04 02:55:18;;;;;;;;;;;14.20;99.90;;;;;;8391195;28;19920;-76
2022/07/04 02:59:20;;;;;;;;;;;14.20;99.90;;;;;;8364372;28;19957;-75
2022/07/04 03:03:21;;;;;;;;;;;14.10;99.90;;;;;;8384210;28;19928;-76
2022/07/04 03:22:54;;;;;;;;;;;13.90;99.90;;;;;;8388747;28;20019;-76
2022/07/04 03:26:56;;;;;;;;;;;13.90;99.90;;;;;;8370947;28;19939;-75
2022/07/04 03:30:58;;;;;;;;;;;13.90;99.90;;;;;;8388346;28;19920;-75
2022/07/04 03:35:00;;;;;;;;;;;13.90;99.90;;;;;;8365039;28;20394;-75
2022/07/04 03:39:02;;;;;;;;;;;13.90;99.90;;;;;;8383173;28;19928;-76
2022/07/04 03:43:07;;;;;;;;;;;13.80;99.90;;;;;;8395238;28;19951;-75
2022/07/04 03:47:09;;;;;;;;;;;13.80;99.90;;;;;;8381365;28;19935;-76
2022/07/04 03:51:11;;;;;;;;;;;13.80;99.90;;;;;;8376301;28;19920;-75
2022/07/04 03:55:13;;;;;;;;;;;13.80;99.90;;;;;;8381296;28;20330;-75
2022/07/04 03:59:15;;;;;;;;;;;13.80;99.90;;;;;;8381596;28;19927;-75
2022/07/04 04:07:37;;;;;;;;;;;13.80;99.90;;;;;;8381753;28;20038;-76
2022/07/04 04:11:38;;;;;;;;;;;13.90;99.90;;;;;;8392795;28;19944;-75
2022/07/04 04:15:40;;;;;;;;;;;13.90;99.90;;;;;;8378809;28;19928;-76
2022/07/04 04:19:42;;;;;;;;;;;14.00;99.90;;;;;;8395202;28;19920;-76
2022/07/04 04:23:43;;;;;;;;;;;14.00;99.90;;;;;;8391974;28;20374;-75
2022/07/04 04:27:45;;;;;;;;;;;14.10;99.90;;;;;;8400250;28;19960;-75
2022/07/04 04:31:47;;;;;;;;;;;14.20;99.90;;;;;;8397005;28;19928;-76
2022/07/04 04:35:48;;;;;;;;;;;14.30;99.90;;;;;;8374787;28;19928;-75
2022/07/04 04:39:50;;;;;;;;;;;14.40;99.90;;;;;;8390309;28;19921;-76
2022/07/04 04:43:52;;;;;;;;;;;14.50;99.90;;;;;;8393610;28;20283;-76
2022/07/04 04:47:54;;;;;;;;;;;14.50;99.90;;;;;;8385217;28;20298;-76
2022/07/04 04:51:55;;;;;;;;;;;14.60;99.90;;;;;;8395212;28;19920;-76
2022/07/04 04:55:57;;;;;;;;;;;14.70;99.90;;;;;;8397080;28;19928;-76
2022/07/04 04:59:59;;;;;;;;;;;14.70;99.90;;;;;;8401918;28;19920;-75
2022/07/04 05:04:01;;;;;;;;;;;14.80;99.90;;;;;;8377092;28;19929;-76
2022/07/04 05:08:03;;;;;;;;;;;14.80;99.90;;;;;;8390857;28;19924;-75
2022/07/04 05:12:04;;;;;;;;;;;14.90;99.90;;;;;;8393996;28;19920;-76
2022/07/04 05:16:06;;;;;;;;;;;14.90;99.90;;;;;;8394086;28;19943;-76
2022/07/04 05:20:08;;;;;;;;;;;14.90;99.90;;;;;;8398058;28;19959;-76
2022/07/04 05:24:11;;;;;;;;;;;15.00;99.90;;;;;;8394672;28;19920;-76
2022/07/04 05:28:12;;;;;;;;;;;15.10;99.90;;;;;;8382997;28;20372;-76
2022/07/04 05:32:14;;;;;;;;;;;15.20;99.90;;;;;;8372312;28;20287;-76
2022/07/04 05:36:16;;;;;;;;;;;15.30;99.90;;;;;;8385997;28;19928;-75
2022/07/04 05:40:17;;;;;;;;;;;15.30;99.90;;;;;;8384990;28;19931;-76
2022/07/04 05:44:19;;;;;;;;;;;15.40;99.90;;;;;;8378669;28;19947;-76
2022/07/04 05:48:21;;;;;;;;;;;15.60;99.90;;;;;;8385220;28;19928;-76
2022/07/04 05:52:22;;;;;;;;;;;15.70;99.90;;;;;;8398616;28;19924;-75
2022/07/04 05:56:24;;;;;;;;;;;15.80;99.90;;;;;;8370512;28;19931;-76
2022/07/04 06:00:27;;;;;;;;;;;15.90;99.90;;;;;;8393136;28;20412;-76
2022/07/04 06:04:29;;;;;;;;;;;15.90;99.90;;;;;;8371943;28;19932;-76
2022/07/04 06:08:31;;;;;;;;;;;16.00;99.90;;;;;;8373172;28;19925;-76
2022/07/04 06:12:33;;;;;;;;;;;16.00;99.90;;;;;;8392972;28;19939;-77
2022/07/04 06:16:34;;;;;;;;;;;16.00;99.90;;;;;;8392283;28;20280;-77
2022/07/04 06:20:36;;;;;;;;;;;16.00;99.90;;;;;;8371410;28;19959;-77
2022/07/04 06:24:38;;;;;;;;;;;16.10;99.90;;;;;;8386284;28;19940;-76
2022/07/04 06:28:40;;;;;;;;;;;16.20;99.90;;;;;;8392560;28;19933;-76
2022/07/04 06:32:49;;;;;;;;;;;16.30;99.90;;;;;;8382322;28;20019;-77
2022/07/04 06:36:51;;;;;;;;;;;16.30;99.90;;;;;;8376594;28;19928;-77
2022/07/04 06:40:57;;;;;;;;;;;16.40;99.90;;;;;;8390112;28;19939;-76
2022/07/04 06:44:58;;;;;;;;;;;16.60;99.90;;;;;;8391507;28;19929;-77
2022/07/04 06:54:19;;;;;;;;;;;16.80;99.90;;;;;;8381401;28;20358;-77
2022/07/04 06:58:21;;;;;;;;;;;17.00;99.90;;;;;;8388185;28;19925;-77
2022/07/04 07:02:23;;;;;;;;;;;17.10;99.90;;;;;;8378637;28;19928;-74
2022/07/04 07:06:24;;;;;;;;;;;17.20;99.90;;;;;;8367165;28;20285;-77
2022/07/04 07:10:26;;;;;;;;;;;17.20;99.90;;;;;;8363248;28;19932;-76
2022/07/04 07:14:28;;;;;;;;;;;17.30;99.90;;;;;;8363563;28;20346;-77
2022/07/04 07:18:30;;;;;;;;;;;17.30;99.90;;;;;;8358538;28;19933;-76
2022/07/04 07:22:31;;;;;;;;;;;17.40;99.90;;;;;;8358427;28;19931;-75
2022/07/04 07:26:33;;;;;;;;;;;17.50;99.90;;;;;;8366102;28;19971;-75
2022/07/04 07:30:35;;;;;;;;;;;17.50;99.90;;;;;;8363982;28;19939;-78
2022/07/04 07:34:36;;;;;;;;;;;17.50;99.90;;;;;;8364909;28;19924;-77
2022/07/04 07:38:38;;;;;;;;;;;17.50;99.90;;;;;;8358636;28;19924;-77
2022/07/04 07:42:40;;;;;;;;;;;17.50;99.90;;;;;;8365759;28;19936;-77
2022/07/04 07:46:42;;;;;;;;;;;17.50;99.90;;;;;;8368394;28;19932;-77
2022/07/04 07:50:44;;;;;;;;;;;17.60;99.90;;;;;;8366777;28;19931;-77
2022/07/04 07:54:45;;;;;;;;;;;17.80;99.90;;;;;;8366407;28;19944;-77
2022/07/04 07:59:00;;;;;;;;;;;17.90;99.90;;;;;;8354574;28;20312;-77
2022/07/04 08:07:22;;;;;;;;;;;18.20;99.90;;;;;;8363531;28;19935;-77
2022/07/04 08:11:24;;;;;;;;;;;18.30;99.90;;;;;;8364734;28;19951;-77
2022/07/04 08:15:26;;;;;;;;;;;18.50;99.90;;;;;;8370772;28;20242;-77
2022/07/04 08:19:28;;;;;;;;;;;18.50;99.90;;;;;;8368927;28;19932;-77
2022/07/04 08:23:30;;;;;;;;;;;18.60;99.90;;;;;;8364650;28;20292;-75
2022/07/04 08:27:32;;;;;;;;;;;18.60;99.90;;;;;;8368926;28;19936;-77
2022/07/04 08:31:34;;;;;;;;;;;18.60;99.90;;;;;;8369847;28;19928;-75
2022/07/04 08:35:53;;;;;;;;;;;18.70;99.90;;;;;;8375554;28;19928;-75
2022/07/04 08:39:55;;;;;;;;;;;18.60;99.90;;;;;;8366138;28;19924;-75
2022/07/04 08:43:56;;;;;;;;;;;18.70;99.90;;;;;;8366319;28;19924;-76
2022/07/04 08:48:01;;;;;;;;;;;18.70;99.90;;;;;;8362913;28;19944;-76
2022/07/04 08:52:07;;;;;;;;;;;18.60;99.90;;;;;;8381436;28;20253;-77
2022/07/04 09:00:30;;;;;;;;;;;18.60;99.90;;;;;;8366128;28;19939;-77
2022/07/04 09:04:31;;;;;;;;;;;18.70;99.90;;;;;;8377981;28;19943;-76
2022/07/04 09:08:33;;;;;;;;;;;18.80;99.90;;;;;;8375094;28;19929;-76
2022/07/04 09:12:35;;;;;;;;;;;18.90;99.90;;;;;;8344974;28;19932;-75
2022/07/04 09:16:56;;;;;;;;;;;19.00;99.90;;;;;;8374056;28;19972;-76
2022/07/04 09:20:59;;;;;;;;;;;19.10;99.90;;;;;;8358570;28;19936;-76
2022/07/04 09:25:03;;;;;;;;;;;19.10;99.90;;;;;;8364087;28;20023;-75
2022/07/04 09:29:05;;;;;;;;;;;19.10;99.90;;;;;;8377718;28;20264;-75
2022/07/04 09:33:07;;;;;;;;;;;19.10;99.90;;;;;;8367575;28;19935;-76
2022/07/04 09:37:08;;;;;;;;;;;19.10;99.90;;;;;;8366363;28;19925;-76
2022/07/04 09:41:26;;;;;;;;;;;19.00;99.90;;;;;;8366618;28;19940;-76
2022/07/04 09:45:28;;;;;;;;;;;19.00;99.90;;;;;;8361622;28;19939;-76
2022/07/04 09:49:30;;;;;;;;;;;19.00;99.90;;;;;;8346517;28;19929;-77
2022/07/04 09:53:32;;;;;;;;;;;19.00;99.90;;;;;;8374429;28;24449;-75
2022/07/04 09:57:34;;;;;;;;;;;19.00;99.90;;;;;;8361858;28;19925;-76
2022/07/04 10:01:36;;;;;;;;;;;19.10;99.90;;;;;;8356374;28;19929;-76
2022/07/04 10:05:37;;;;;;;;;;;19.10;99.90;;;;;;8357827;28;19924;-75
2022/07/04 10:09:39;;;;;;;;;;;19.10;99.90;;;;;;8354128;28;19943;-76
2022/07/04 10:13:41;;;;;;;;;;;19.10;99.90;;;;;;8368335;28;20347;-76
2022/07/04 10:17:42;;;;;;;;;;;19.30;99.90;;;;;;8374602;28;19924;-77
2022/07/04 10:21:44;;;;;;;;;;;19.50;99.90;;;;;;8382554;28;19925;-76
2022/07/04 10:25:46;;;;;;;;;;;19.50;99.90;;;;;;8356693;28;20306;-74
2022/07/04 10:29:48;;;;;;;;;;;19.60;99.90;;;;;;8355644;28;19936;-74
2022/07/04 10:33:50;;;;;;;;;;;19.80;99.90;;;;;;8359243;28;19929;-75
2022/07/04 10:38:02;;;;;;;;;;;19.90;99.90;;;;;;8361721;28;19933;-74
2022/07/04 10:42:06;;;;;;;;;;;19.90;99.90;;;;;;8356507;28;19932;-75
2022/07/04 10:46:14;;;;;;;;;;;19.90;99.90;;;;;;8363425;28;19925;-75
2022/07/04 10:50:29;;;;;;;;;;;19.90;99.90;;;;;;8354986;28;19933;-75
2022/07/04 10:54:31;;;;;;;;;;;20.00;99.90;;;;;;8362987;28;19929;-75
2022/07/04 10:58:42;;;;;;;;;;;20.20;99.90;;;;;;8347738;28;19929;-75
2022/07/04 11:02:43;;;;;;;;;;;20.40;99.90;;;;;;8373423;28;19973;-75
2022/07/04 11:06:45;;;;;;;;;;;20.40;99.90;;;;;;8373335;28;19925;-76
2022/07/04 11:11:05;;;;;;;;;;;20.30;99.90;;;;;;8359790;28;19936;-74
2022/07/04 11:15:06;;;;;;;;;;;20.30;99.90;;;;;;8360243;28;19924;-74
2022/07/04 11:19:08;;;;;;;;;;;20.40;99.90;;;;;;8360359;28;20291;-74
2022/07/04 11:23:11;;;;;;;;;;;20.40;99.90;;;;;;8363001;28;20031;-75
2022/07/04 11:27:13;;;;;;;;;;;20.40;99.90;;;;;;8362838;28;19940;-74
2022/07/04 11:31:14;;;;;;;;;;;20.40;99.90;;;;;;8359203;28;19929;-75
2022/07/04 11:35:19;;;;;;;;;;;20.50;99.90;;;;;;8373726;28;19928;-74
2022/07/04 11:39:21;;;;;;;;;;;20.60;99.90;;;;;;8355770;28;19932;-74
2022/07/04 11:47:43;;;;;;;;;;;20.80;99.90;;;;;;8369040;28;20421;-75
2022/07/04 11:51:48;;;;;;;;;;;20.90;99.90;;;;;;8367613;28;19931;-75
2022/07/04 11:55:56;;;;;;;;;;;21.00;99.90;;;;;;8370133;28;20003;-75
2022/07/04 12:00:08;;;;;;;;;;;21.00;99.90;;;;;;8365710;28;19955;-74
2022/07/04 12:04:16;;;;;;;;;;;21.00;99.90;;;;;;8368763;28;20535;-74
2022/07/04 12:08:18;;;;;;;;;;;21.00;99.90;;;;;;8366189;28;19928;-74
2022/07/04 12:12:27;;;;;;;;;;;21.10;99.90;;;;;;8376698;28;20428;-74
2022/07/04 12:16:29;;;;;;;;;;;21.10;99.90;;;;;;8365227;28;19925;-75
2022/07/04 12:20:31;;;;;;;;;;;21.20;99.90;;;;;;8361229;28;20367;-74
2022/07/04 12:24:40;;;;;;;;;;;21.10;99.90;;;;;;8367539;28;19932;-74
2022/07/04 12:28:41;;;;;;;;;;;21.20;99.90;;;;;;8358215;28;19929;-74
2022/07/04 12:32:48;;;;;;;;;;;21.20;99.90;;;;;;8363671;28;20280;-76
2022/07/04 12:36:52;;;;;;;;;;;21.30;99.90;;;;;;8370904;28;19928;-73
2022/07/04 12:40:57;;;;;;;;;;;21.30;99.90;;;;;;8372097;28;19932;-74
2022/07/04 12:45:05;;;;;;;;;;;21.30;99.90;;;;;;8374413;28;20304;-74
2022/07/04 12:49:07;;;;;;;;;;;21.30;99.90;;;;;;8371333;28;19932;-74
2022/07/04 12:53:08;;;;;;;;;;;21.30;99.90;;;;;;8359293;28;19925;-74
2022/07/04 12:57:15;;;;;;;;;;;21.30;99.90;;;;;;8360977;28;19925;-74
2022/07/04 13:01:16;;;;;;;;;;;21.50;99.90;;;;;;8357064;28;19935;-73
2022/07/04 13:05:18;;;;;;;;;;;21.50;99.90;;;;;;8362422;28;19931;-73
2022/07/04 13:09:20;;;;;;;;;;;21.50;99.90;;;;;;8361427;28;19924;-74
2022/07/04 13:13:21;;;;;;;;;;;21.60;99.90;;;;;;8356872;28;20276;-74
2022/07/04 13:17:23;;;;;;;;;;;21.60;99.90;;;;;;8359099;28;20272;-74
2022/07/04 13:21:25;;;;;;;;;;;21.60;99.90;;;;;;8341135;28;19928;-74
2022/07/04 13:25:27;;;;;;;;;;;21.60;99.90;;;;;;8366827;28;20306;-75
2022/07/04 13:29:28;;;;;;;;;;;21.70;99.90;;;;;;8354826;28;20275;-74
2022/07/04 13:33:30;;;;;;;;;;;21.70;99.90;;;;;;8374849;28;19951;-73
2022/07/04 13:37:32;;;;;;;;;;;21.70;99.90;;;;;;8370675;28;19933;-74
2022/07/04 13:41:34;;;;;;;;;;;21.70;99.90;;;;;;8369421;28;19955;-75
2022/07/04 13:45:36;;;;;;;;;;;21.80;99.90;;;;;;8365733;28;20549;-74
2022/07/04 13:49:37;;;;;;;;;;;21.80;99.90;;;;;;8360207;28;19929;-73
2022/07/04 13:53:39;;;;;;;;;;;21.90;99.90;;;;;;8374757;28;20441;-73
2022/07/04 13:57:41;;;;;;;;;;;22.00;99.90;;;;;;8361289;28;19925;-75
2022/07/04 14:01:42;;;;;;;;;;;22.10;99.90;;;;;;8355434;28;19928;-74
2022/07/04 14:05:44;;;;;;;;;;;22.10;99.90;;;;;;8360728;28;19925;-75
2022/07/04 14:09:46;;;;;;;;;;;22.20;99.90;;;;;;8356438;28;20352;-74
2022/07/04 14:13:48;;;;;;;;;;;22.20;99.90;;;;;;8353615;28;19986;-75
2022/07/04 14:17:50;;;;;;;;;;;22.20;99.90;;;;;;8360848;28;19925;-74
2022/07/04 14:21:51;;;;;;;;;;;22.20;99.90;;;;;;8348397;28;19951;-74
2022/07/04 14:25:53;;;;;;;;;;;22.20;99.90;;;;;;8358685;28;20528;-74
2022/07/04 14:29:55;;;;;;;;;;;22.30;99.90;;;;;;8370101;28;20392;-74
2022/07/04 14:33:56;;;;;;;;;;;22.30;99.90;;;;;;8356785;28;19950;-74
2022/07/04 14:37:59;;;;;;;;;;;22.50;99.90;;;;;;8357228;28;19929;-75
2022/07/04 14:42:00;;;;;;;;;;;22.60;99.90;;;;;;8358835;28;19940;-74
2022/07/04 14:46:02;;;;;;;;;;;22.60;99.90;;;;;;8365172;28;19939;-73
2022/07/04 14:50:04;;;;;;;;;;;22.70;99.90;;;;;;8352606;28;20433;-74
2022/07/04 14:54:06;;;;;;;;;;;22.70;99.90;;;;;;8356575;28;19932;-74
2022/07/04 14:58:08;;;;;;;;;;;22.70;99.90;;;;;;8356936;28;19936;-74
2022/07/04 15:02:10;;;;;;;;;;;22.70;99.90;;;;;;8355580;28;19929;-74
2022/07/04 15:06:11;;;;;;;;;;;22.70;99.90;;;;;;8372364;28;19929;-74
2022/07/04 15:10:13;;;;;;;;;;;22.50;99.90;;;;;;8336723;28;19928;-73
2022/07/04 15:14:15;;;;;;;;;;;22.50;99.90;;;;;;8356090;28;19925;-74
2022/07/04 15:18:16;;;;;;;;;;;22.40;99.90;;;;;;8375997;28;19925;-73
2022/07/04 15:26:39;;;;;;;;;;;22.40;99.90;;;;;;8360073;28;19925;-75
2022/07/04 15:30:40;;;;;;;;;;;22.50;99.90;;;;;;8355598;28;19947;-75
2022/07/04 15:34:42;;;;;;;;;;;22.60;99.90;;;;;;8354231;28;20015;-74
2022/07/04 15:39:08;;;;;;;;;;;22.70;99.90;;;;;;8353531;28;19967;-74
2022/07/04 15:43:10;;;;;;;;;;;22.70;99.90;;;;;;8375031;28;19932;-73
2022/07/04 15:47:12;;;;;;;;;;;22.70;99.90;;;;;;8356842;28;19932;-74
2022/07/04 15:51:14;;;;;;;;;;;22.80;99.90;;;;;;8380624;28;20406;-73
2022/07/04 15:55:30;;;;;;;;;;;22.80;99.90;;;;;;8357094;28;20034;-74
2022/07/04 15:59:32;;;;;;;;;;;23.00;99.90;;;;;;8360614;28;19933;-74
2022/07/04 16:03:34;;;;;;;;;;;23.20;99.90;;;;;;8362943;28;19925;-74
2022/07/04 16:07:35;;;;;;;;;;;23.50;99.90;;;;;;8360282;28;20403;-74
2022/07/04 16:11:37;;;;;;;;;;;23.70;99.90;;;;;;8358013;28;19933;-75
2022/07/04 16:15:39;;;;;;;;;;;24.10;99.90;;;;;;8362452;28;19936;-73
2022/07/04 16:19:41;;;;;;;;;;;24.50;99.90;;;;;;8359976;28;19948;-75
2022/07/04 16:23:42;;;;;;;;;;;24.90;99.90;;;;;;8361138;28;20384;-75
2022/07/04 16:27:44;;;;;;;;;;;25.30;99.90;;;;;;8354754;28;19931;-74
2022/07/04 16:31:45;;;;;;;;;;;25.70;99.90;;;;;;8364379;28;19935;-74
2022/07/04 16:35:48;;;;;;;;;;;26.00;99.90;;;;;;8360081;28;19932;-75
2022/07/04 16:39:50;;;;;;;;;;;26.20;99.90;;;;;;8360057;28;19973;-76
2022/07/04 16:43:51;;;;;;;;;;;26.30;99.90;;;;;;8357746;28;19931;-75
2022/07/04 16:47:53;;;;;;;;;;;26.00;99.90;;;;;;8363961;28;19932;-74
2022/07/04 16:51:55;;;;;;;;;;;25.80;99.90;;;;;;8359077;28;20006;-74
2022/07/04 16:55:56;;;;;;;;;;;25.60;99.90;;;;;;8360719;28;19929;-75
2022/07/04 16:59:58;;;;;;;;;;;25.30;99.90;;;;;;8346624;28;19964;-74
2022/07/04 17:03:59;;;;;;;;;;;25.40;99.90;;;;;;8343818;28;20384;-75
2022/07/04 17:08:01;;;;;;;;;;;25.70;99.90;;;;;;8354057;28;21211;-74
2022/07/04 17:12:03;;;;;;;;;;;25.90;99.90;;;;;;8350318;28;19932;-75
2022/07/04 17:16:06;;;;;;;;;;;26.00;99.90;;;;;;8352496;28;19932;-76
2022/07/04 17:20:08;;;;;;;;;;;25.90;99.90;;;;;;8354031;28;19924;-74
2022/07/04 17:24:09;;;;;;;;;;;25.70;99.90;;;;;;8357175;28;20260;-74
2022/07/04 17:28:11;;;;;;;;;;;25.50;99.90;;;;;;8371031;28;20364;-74
2022/07/04 17:32:12;;;;;;;;;;;25.10;99.90;;;;;;8350983;28;19940;-74
2022/07/04 17:36:14;;;;;;;;;;;24.60;99.90;;;;;;8353265;28;20019;-75
2022/07/04 17:40:16;;;;;;;;;;;24.30;99.90;;;;;;8362886;28;19924;-74
2022/07/04 17:44:31;;;;;;;;;;;24.00;99.90;;;;;;8351596;28;19928;-74
2022/07/04 17:48:33;;;;;;;;;;;23.60;99.90;;;;;;8330820;28;19976;-74
2022/07/04 17:52:35;;;;;;;;;;;23.40;99.90;;;;;;8350898;28;19936;-75
2022/07/04 17:56:37;;;;;;;;;;;23.20;99.90;;;;;;8353208;28;19924;-76
2022/07/04 18:00:38;;;;;;;;;;;23.00;99.90;;;;;;8349831;28;19925;-75
2022/07/04 18:04:40;;;;;;;;;;;22.80;99.90;;;;;;8345093;28;20650;-74
2022/07/04 18:08:42;;;;;;;;;;;22.70;99.90;;;;;;8351822;28;20378;-75
2022/07/04 18:12:44;;;;;;;;;;;22.60;99.90;;;;;;8336388;28;19929;-74
2022/07/04 18:16:46;;;;;;;;;;;22.50;99.90;;;;;;8351338;28;19925;-76
2022/07/04 18:20:47;;;;;;;;;;;22.40;99.90;;;;;;8354992;28;20471;-75
2022/07/04 18:24:49;;;;;;;;;;;22.30;99.90;;;;;;8367861;28;19929;-75
2022/07/04 18:28:50;;;;;;;;;;;22.20;99.90;;;;;;8357874;28;19936;-74
2022/07/04 18:32:52;;;;;;;;;;;22.10;99.90;;;;;;8353869;28;19933;-75
2022/07/04 18:36:54;;;;;;;;;;;22.00;99.90;;;;;;8353684;28;19943;-75
2022/07/04 18:45:16;;;;;;;;;;;22.00;99.90;;;;;;8350275;28;19928;-75
2022/07/04 18:49:18;;;;;;;;;;;22.00;99.90;;;;;;8361212;28;19925;-75
2022/07/04 18:53:20;;;;;;;;;;;21.90;99.90;;;;;;8350151;28;19932;-75
2022/07/04 18:57:22;;;;;;;;;;;21.90;99.90;;;;;;8353512;28;20257;-75
2022/07/04 19:01:24;;;;;;;;;;;21.90;99.90;;;;;;8356319;28;19929;-75
2022/07/04 19:05:25;;;;;;;;;;;21.90;99.90;;;;;;8354569;28;19929;-75
2022/07/04 19:09:27;;;;;;;;;;;21.90;99.90;;;;;;8353241;28;19925;-75
2022/07/04 19:13:29;;;;;;;;;;;21.90;99.90;;;;;;8354285;28;19933;-76
2022/07/04 19:17:31;;;;;;;;;;;21.80;99.90;;;;;;8354488;28;19987;-75
2022/07/04 19:21:32;;;;;;;;;;;21.70;99.90;;;;;;8357098;28;19970;-75
2022/07/04 19:25:35;;;;;;;;;;;21.60;99.90;;;;;;8356518;28;19940;-75
2022/07/04 19:29:52;;;;;;;;;;;21.50;99.90;;;;;;8362567;28;20027;-75
2022/07/04 19:33:54;;;;;;;;;;;21.40;99.90;;;;;;8367250;28;19928;-75
2022/07/04 19:37:56;;;;;;;;;;;21.30;99.90;;;;;;8355837;28;20004;-75
2022/07/04 19:41:57;;;;;;;;;;;21.30;99.90;;;;;;8359067;28;19936;-75
2022/07/04 19:45:59;;;;;;;;;;;21.20;99.90;;;;;;8363932;28;19935;-75
2022/07/04 19:50:02;;;;;;;;;;;21.10;99.90;;;;;;8355397;28;20311;-76
2022/07/04 19:54:05;;;;;;;;;;;21.00;99.90;;;;;;8362274;28;20410;-75
2022/07/04 19:58:07;;;;;;;;;;;20.90;99.90;;;;;;8369797;28;19936;-75
2022/07/04 20:02:08;;;;;;;;;;;20.80;99.90;;;;;;8356974;28;19928;-75
2022/07/04 20:06:10;;;;;;;;;;;20.70;99.90;;;;;;8353726;28;19940;-75
2022/07/04 20:10:12;;;;;;;;;;;20.60;99.90;;;;;;8346258;28;19940;-76
2022/07/04 20:14:14;;;;;;;;;;;20.60;99.90;;;;;;8366710;28;20625;-75
2022/07/04 20:18:16;;;;;;;;;;;20.50;99.90;;;;;;8356432;28;19933;-75
2022/07/04 20:22:20;;;;;;;;;;;20.40;99.90;;;;;;8355451;28;19928;-75
2022/07/04 20:26:21;;;;;;;;;;;20.30;99.90;;;;;;8347276;28;19932;-75
2022/07/04 20:30:23;;;;;;;;;;;20.30;99.90;;;;;;8354999;28;19932;-75
2022/07/04 20:34:29;;;;;;;;;;;20.30;99.90;;;;;;8355436;28;20027;-76
2022/07/04 20:38:31;;;;;;;;;;;20.20;99.90;;;;;;8337958;28;19940;-76
2022/07/04 20:42:33;;;;;;;;;;;20.20;99.90;;;;;;8354049;28;19929;-75
2022/07/04 20:46:35;;;;;;;;;;;20.20;99.90;;;;;;8356704;28;20012;-76
2022/07/04 20:50:37;;;;;;;;;;;20.20;99.90;;;;;;8356750;28;19953;-76
2022/07/04 20:54:38;;;;;;;;;;;20.20;99.90;;;;;;8347059;28;21233;-76
2022/07/04 20:58:40;;;;;;;;;;;20.10;99.90;;;;;;8352319;28;19925;-76
2022/07/04 21:02:42;;;;;;;;;;;20.00;99.90;;;;;;8367163;28;19925;-75
2022/07/04 21:06:44;;;;;;;;;;;19.80;99.90;;;;;;8359786;28;19928;-76
2022/07/04 21:10:45;;;;;;;;;;;19.70;99.90;;;;;;8361973;28;19935;-76
2022/07/04 21:14:47;;;;;;;;;;;19.70;99.90;;;;;;8377972;28;19955;-75
2022/07/04 21:18:49;;;;;;;;;;;19.50;99.90;;;;;;8365595;28;20308;-75
2022/07/04 21:22:51;;;;;;;;;;;19.40;99.90;;;;;;8373803;28;19925;-76
2022/07/04 21:26:53;;;;;;;;;;;19.30;99.90;;;;;;8377467;28;19932;-75
2022/07/04 21:30:55;;;;;;;;;;;19.20;99.90;;;;;;8377141;28;19935;-75
2022/07/04 21:34:57;;;;;;;;;;;19.10;99.90;;;;;;8380040;28;19932;-76
2022/07/04 21:39:18;;;;;;;;;;;19.00;99.90;;;;;;8375301;28;20027;-75
2022/07/04 21:43:20;;;;;;;;;;;18.90;99.90;;;;;;8382815;28;19947;-75
2022/07/04 21:47:22;;;;;;;;;;;18.90;99.90;;;;;;8381627;28;19924;-76
2022/07/04 21:51:23;;;;;;;;;;;18.80;99.90;;;;;;8381463;28;19931;-76
2022/07/04 21:55:25;;;;;;;;;;;18.70;99.90;;;;;;8369862;28;19929;-75
2022/07/04 21:59:27;;;;;;;;;;;18.60;99.90;;;;;;8364678;28;20005;-76
2022/07/04 22:03:29;;;;;;;;;;;18.50;99.90;;;;;;8374765;28;19940;-75
2022/07/04 22:07:30;;;;;;;;;;;18.50;99.90;;;;;;8369291;28;20276;-76
2022/07/04 22:11:32;;;;;;;;;;;18.40;99.90;;;;;;8373770;28;19931;-75
2022/07/04 22:15:33;;;;;;;;;;;18.30;99.90;;;;;;8365873;28;19940;-75
2022/07/04 22:19:35;;;;;;;;;;;18.30;99.90;;;;;;8379602;28;19936;-75
2022/07/04 22:23:37;;;;;;;;;;;18.20;99.90;;;;;;8382205;28;20391;-76
2022/07/04 22:27:39;;;;;;;;;;;18.00;99.90;;;;;;8382109;28;19929;-76
2022/07/04 22:31:40;;;;;;;;;;;18.00;99.90;;;;;;8377540;28;19955;-76
2022/07/04 22:35:42;;;;;;;;;;;17.90;99.90;;;;;;8371731;28;19970;-77
2022/07/04 22:39:44;;;;;;;;;;;17.80;99.90;;;;;;8365712;28;19931;-76
2022/07/04 22:43:45;;;;;;;;;;;17.80;99.90;;;;;;8384346;28;19928;-76
2022/07/04 22:47:47;;;;;;;;;;;17.70;99.90;;;;;;8353651;28;19932;-75
2022/07/04 22:51:49;;;;;;;;;;;17.70;99.90;;;;;;8366016;28;20384;-76
2022/07/04 22:55:50;;;;;;;;;;;17.60;99.90;;;;;;8382292;28;19932;-76
2022/07/04 22:59:53;;;;;;;;;;;17.50;99.90;;;;;;8376739;28;19925;-75
2022/07/04 23:03:56;;;;;;;;;;;17.50;99.90;;;;;;8382797;28;19933;-75
2022/07/04 23:07:57;;;;;;;;;;;17.40;99.90;;;;;;8391822;28;19935;-75
2022/07/04 23:11:59;;;;;;;;;;;17.30;99.90;;;;;;8364661;28;20024;-76
2022/07/04 23:16:01;;;;;;;;;;;17.20;99.90;;;;;;8385837;28;20280;-75
2022/07/04 23:20:03;;;;;;;;;;;17.10;99.90;;;;;;8382785;28;21652;-75
2022/07/04 23:24:04;;;;;;;;;;;17.10;99.90;;;;;;8381155;28;19955;-75
2022/07/04 23:28:06;;;;;;;;;;;17.00;99.90;;;;;;8368812;28;19932;-75
2022/07/04 23:32:08;;;;;;;;;;;16.90;99.90;;;;;;8390389;28;19924;-75
2022/07/04 23:36:09;;;;;;;;;;;16.90;99.90;;;;;;8375368;28;22398;-75
2022/07/04 23:40:11;;;;;;;;;;;16.80;99.90;;;;;;8358007;28;19952;-75
2022/07/04 23:44:13;;;;;;;;;;;16.70;99.90;;;;;;8380489;28;19935;-75
2022/07/04 23:48:14;;;;;;;;;;;16.60;99.90;;;;;;8363505;28;19925;-76
2022/07/04 23:52:16;;;;;;;;;;;16.60;99.90;;;;;;8369139;28;20556;-75
2022/07/04 23:56:18;;;;;;;;;;;16.50;99.90;;;;;;8380380;28;20532;-75
